Flight Track Log - Related Links

Times and Time Zones

All times are in EDT time to prevent confusion due to time zone crossing. See the ASQ4283 flight status page for this flight to view local times or setup timezone preferences in your user account.

Time Position Orientation Groundspeed Altitude Reporting Facility
EDT Latitude Longitude Course Direction KTS MPH feet Rate Location/Type
Mon 08:22:20 PM 41.4458 -90.3322 91° East 229 264 6,800  Level Chicago Center
Mon 08:23:22 PM 41.4444 -90.2353 91° East 259 298 9,600 2,129 Climbing Chicago Center
Mon 08:24:24 PM 41.4417 -90.1319 92° East 272 313 11,200 1,258 Climbing Chicago Center
Mon 08:25:26 PM 41.4397 -90.0003 91° East 337 388 12,200 1,258 Climbing Chicago Center
Mon 08:26:00 PM 41.4334 -89.8610 90° East  Level FlightAware Approximate
Mon 08:26:28 PM 41.4381 -89.8661 91° East 357 411 13,800  Level Chicago Center
Mon 08:27:30 PM 41.4347 -89.7300 92° East 365 420 15,100 1,161 Climbing Chicago Center
Mon 08:28:32 PM 41.4336 -89.5908 91° East 372 428 16,200 919 Climbing Chicago Center
Mon 08:29:34 PM 41.4458 -89.4192 85° East 390 449 17,000 387 Climbing Chicago Center
Mon 08:30:36 PM 41.4600 -89.2761 82° East 389 448 17,000 -435 Level Chicago Center
Mon 08:31:38 PM 41.4711 -89.1453 83° East 383 441 16,100 -1,403 Descending Chicago Center
Mon 08:32:40 PM 41.4844 -89.0100 82° East 374 430 14,100 -2,129 Descending Chicago Center
Mon 08:33:42 PM 41.4978 -88.8517 84° East 361 415 11,700 -1,500 Descending Chicago Center
Mon 08:34:44 PM 41.5097 -88.7275 83° East 342 394 11,000 -290 Descending Chicago Center
Mon 08:35:46 PM 41.5406 -88.6350 66° East 277 319 11,100 48 Climbing Chicago Center
Mon 08:36:48 PM 41.5756 -88.5475 62° Northeast 270 311 11,100 -387 Level Chicago Center
Mon 08:37:50 PM 41.5925 -88.4511 77° East 267 307 10,300 -1,073 Descending Chicago Center
Mon 08:38:51 PM 41.6056 -88.3375 81° East 260 299 8,900 -1,122 Descending Chicago Center
Mon 08:39:53 PM 41.6439 -88.2639 55° Northeast 256 295 8,000 -435 Descending Chicago Center
Mon 08:40:55 PM 41.6947 -88.2036 42° Northeast 244 281 8,000 -677 Level Chicago Center
Mon 08:41:57 PM 41.7428 -88.1472 41° Northeast 232 267 6,600 -1,306 Descending Chicago Center
Mon 08:42:59 PM 41.7853 -88.0967 42° Northeast 210 242 5,300 -1,306 Descending Chicago Center
Mon 08:44:01 PM 41.8244 -88.0514 41° Northeast 195 224 3,900 -1,113 Descending Chicago Center
Mon 08:45:03 PM 41.8631 -88.0058 41° Northeast 190 219 3,000 -956 Descending Chicago Center
Mon 08:45:54 PM 41.9000 -87.9667 38° Northeast 129 148 2,100 -757 Descending Chicago TRACON
Mon 08:46:54 PM 41.9167 -87.9333 56° Northeast 108 124 1,600 -567 Descending Chicago TRACON
Mon 08:48:01 PM 41.9500 -87.9167 20° North 116 133 900 -627 Descending Chicago TRACON
Mon 08:50:00 PM 41.9667 -87.9000 37° Northeast  Level FlightAware Approximate

Login

Don't have an account? Register now (free) for customized features, flight alerts, and more!